sensor_id;sensor_type;location;lat;lon;timestamp;temperature;humidity
5697;DHT22;2873;50.966;7.210;2023-06-22T00:00:31;24.40;99.90
5697;DHT22;2873;50.966;7.210;2023-06-22T00:02:57;24.30;99.90
5697;DHT22;2873;50.966;7.210;2023-06-22T00:05:23;24.30;99.90
5697;DHT22;2873;50.966;7.210;2023-06-22T00:07:49;24.10;99.90
5697;DHT22;2873;50.966;7.210;2023-06-22T00:10:14;24.30;99.90
5697;DHT22;2873;50.966;7.210;2023-06-22T00:12:40;24.30;99.90
5697;DHT22;2873;50.966;7.210;2023-06-22T00:15:06;24.30;99.90
5697;DHT22;2873;50.966;7.210;2023-06-22T00:17:31;24.30;99.90
5697;DHT22;2873;50.966;7.210;2023-06-22T00:19:57;24.30;99.90
5697;DHT22;2873;50.966;7.210;2023-06-22T00:22:24;24.20;99.90
5697;DHT22;2873;50.966;7.210;2023-06-22T00:24:55;24.20;99.90
5697;DHT22;2873;50.966;7.210;2023-06-22T00:27:21;24.30;99.90
5697;DHT22;2873;50.966;7.210;2023-06-22T00:29:46;24.20;99.90
5697;DHT22;2873;50.966;7.210;2023-06-22T00:32:12;24.40;99.90
5697;DHT22;2873;50.966;7.210;2023-06-22T00:34:37;24.10;99.90
5697;DHT22;2873;50.966;7.210;2023-06-22T00:37:03;24.20;99.90
5697;DHT22;2873;50.966;7.210;2023-06-22T00:39:29;24.30;99.90
5697;DHT22;2873;50.966;7.210;2023-06-22T00:41:54;24.20;99.90
5697;DHT22;2873;50.966;7.210;2023-06-22T00:44:20;24.20;99.90
5697;DHT22;2873;50.966;7.210;2023-06-22T00:46:46;24.20;99.90
5697;DHT22;2873;50.966;7.210;2023-06-22T00:49:11;24.20;99.90
5697;DHT22;2873;50.966;7.210;2023-06-22T00:51:38;24.10;99.90
5697;DHT22;2873;50.966;7.210;2023-06-22T00:54:04;24.10;99.90
5697;DHT22;2873;50.966;7.210;2023-06-22T00:56:31;24.20;99.90
5697;DHT22;2873;50.966;7.210;2023-06-22T00:58:58;24.10;99.90
5697;DHT22;2873;50.966;7.210;2023-06-22T01:01:25;24.10;99.90
5697;DHT22;2873;50.966;7.210;2023-06-22T01:03:51;24.10;99.90
5697;DHT22;2873;50.966;7.210;2023-06-22T01:06:29;24.10;99.90
5697;DHT22;2873;50.966;7.210;2023-06-22T01:09:15;24.10;99.90
5697;DHT22;2873;50.966;7.210;2023-06-22T01:12:16;24.10;99.90
5697;DHT22;2873;50.966;7.210;2023-06-22T01:14:47;24.10;99.90
5697;DHT22;2873;50.966;7.210;2023-06-22T01:17:15;24.10;99.90
5697;DHT22;2873;50.966;7.210;2023-06-22T01:22:15;24.00;99.90
5697;DHT22;2873;50.966;7.210;2023-06-22T01:29:59;24.00;99.90
5697;DHT22;2873;50.966;7.210;2023-06-22T01:32:31;24.10;99.90
5697;DHT22;2873;50.966;7.210;2023-06-22T01:35:00;24.00;99.90
5697;DHT22;2873;50.966;7.210;2023-06-22T01:37:27;24.10;99.90
5697;DHT22;2873;50.966;7.210;2023-06-22T01:39:54;24.20;99.90
5697;DHT22;2873;50.966;7.210;2023-06-22T01:42:21;24.10;99.90
5697;DHT22;2873;50.966;7.210;2023-06-22T01:44:47;24.10;99.90
5697;DHT22;2873;50.966;7.210;2023-06-22T01:47:13;24.10;99.90
5697;DHT22;2873;50.966;7.210;2023-06-22T01:49:40;24.20;99.90
5697;DHT22;2873;50.966;7.210;2023-06-22T01:52:07;24.10;99.90
5697;DHT22;2873;50.966;7.210;2023-06-22T01:54:32;24.10;99.90
5697;DHT22;2873;50.966;7.210;2023-06-22T01:56:58;24.00;99.90
5697;DHT22;2873;50.966;7.210;2023-06-22T01:59:34;23.90;99.90
5697;DHT22;2873;50.966;7.210;2023-06-22T02:02:09;23.90;99.90
5697;DHT22;2873;50.966;7.210;2023-06-22T02:04:48;24.00;99.90
5697;DHT22;2873;50.966;7.210;2023-06-22T02:07:18;24.10;99.90
5697;DHT22;2873;50.966;7.210;2023-06-22T02:09:45;24.00;99.90
5697;DHT22;2873;50.966;7.210;2023-06-22T02:12:13;23.80;99.90
5697;DHT22;2873;50.966;7.210;2023-06-22T02:14:41;23.90;99.90
5697;DHT22;2873;50.966;7.210;2023-06-22T02:17:09;23.80;99.90
5697;DHT22;2873;50.966;7.210;2023-06-22T02:19:38;23.90;99.90
5697;DHT22;2873;50.966;7.210;2023-06-22T02:22:04;23.90;99.90
5697;DHT22;2873;50.966;7.210;2023-06-22T02:24:30;23.90;99.90
5697;DHT22;2873;50.966;7.210;2023-06-22T02:27:01;23.90;99.90
5697;DHT22;2873;50.966;7.210;2023-06-22T02:29:27;23.90;99.90
5697;DHT22;2873;50.966;7.210;2023-06-22T02:31:54;24.00;99.90
5697;DHT22;2873;50.966;7.210;2023-06-22T02:34:21;23.90;99.90
5697;DHT22;2873;50.966;7.210;2023-06-22T02:36:47;23.90;99.90
5697;DHT22;2873;50.966;7.210;2023-06-22T02:39:21;23.90;99.90
5697;DHT22;2873;50.966;7.210;2023-06-22T02:41:48;23.90;99.90
5697;DHT22;2873;50.966;7.210;2023-06-22T02:44:14;23.80;99.90
5697;DHT22;2873;50.966;7.210;2023-06-22T02:46:40;23.90;99.90
5697;DHT22;2873;50.966;7.210;2023-06-22T02:49:06;23.80;99.90
5697;DHT22;2873;50.966;7.210;2023-06-22T02:51:33;23.90;99.90
5697;DHT22;2873;50.966;7.210;2023-06-22T02:54:01;23.80;99.90
5697;DHT22;2873;50.966;7.210;2023-06-22T02:56:28;23.70;99.90
5697;DHT22;2873;50.966;7.210;2023-06-22T02:58:55;23.70;99.90
5697;DHT22;2873;50.966;7.210;2023-06-22T03:01:26;23.70;99.90
5697;DHT22;2873;50.966;7.210;2023-06-22T03:03:53;23.70;99.90
5697;DHT22;2873;50.966;7.210;2023-06-22T03:06:20;23.70;99.90
5697;DHT22;2873;50.966;7.210;2023-06-22T03:08:50;23.70;99.90
5697;DHT22;2873;50.966;7.210;2023-06-22T03:11:16;23.70;99.90
5697;DHT22;2873;50.966;7.210;2023-06-22T03:13:42;23.80;99.90
5697;DHT22;2873;50.966;7.210;2023-06-22T03:16:08;23.70;99.90
5697;DHT22;2873;50.966;7.210;2023-06-22T03:18:33;23.70;99.90
5697;DHT22;2873;50.966;7.210;2023-06-22T03:20:59;23.70;99.90
5697;DHT22;2873;50.966;7.210;2023-06-22T03:23:25;23.70;99.90
5697;DHT22;2873;50.966;7.210;2023-06-22T03:25:51;23.60;99.90
5697;DHT22;2873;50.966;7.210;2023-06-22T03:28:16;23.60;99.90
5697;DHT22;2873;50.966;7.210;2023-06-22T03:30:43;23.70;99.90
5697;DHT22;2873;50.966;7.210;2023-06-22T03:33:08;23.80;99.90
5697;DHT22;2873;50.966;7.210;2023-06-22T03:35:34;23.80;99.90
5697;DHT22;2873;50.966;7.210;2023-06-22T03:37:59;23.60;99.90
5697;DHT22;2873;50.966;7.210;2023-06-22T03:40:25;23.50;99.90
5697;DHT22;2873;50.966;7.210;2023-06-22T03:42:50;23.50;99.90
5697;DHT22;2873;50.966;7.210;2023-06-22T03:45:16;23.50;99.90
5697;DHT22;2873;50.966;7.210;2023-06-22T03:47:41;23.50;99.90
5697;DHT22;2873;50.966;7.210;2023-06-22T03:50:07;23.50;99.90
5697;DHT22;2873;50.966;7.210;2023-06-22T03:52:33;23.50;99.90
5697;DHT22;2873;50.966;7.210;2023-06-22T03:54:59;23.60;99.90
5697;DHT22;2873;50.966;7.210;2023-06-22T03:57:24;23.50;99.90
5697;DHT22;2873;50.966;7.210;2023-06-22T03:59:50;23.50;99.90
5697;DHT22;2873;50.966;7.210;2023-06-22T04:02:15;23.50;99.90
5697;DHT22;2873;50.966;7.210;2023-06-22T04:04:41;23.40;99.90
5697;DHT22;2873;50.966;7.210;2023-06-22T04:07:06;23.50;99.90
5697;DHT22;2873;50.966;7.210;2023-06-22T04:09:33;23.40;99.90
5697;DHT22;2873;50.966;7.210;2023-06-22T04:11:58;23.30;99.90
5697;DHT22;2873;50.966;7.210;2023-06-22T04:14:24;23.30;99.90
5697;DHT22;2873;50.966;7.210;2023-06-22T04:16:49;23.30;99.90
5697;DHT22;2873;50.966;7.210;2023-06-22T04:19:15;23.30;99.90
5697;DHT22;2873;50.966;7.210;2023-06-22T04:21:43;23.10;99.90
5697;DHT22;2873;50.966;7.210;2023-06-22T04:24:14;23.10;99.90
5697;DHT22;2873;50.966;7.210;2023-06-22T04:26:39;23.20;99.90
5697;DHT22;2873;50.966;7.210;2023-06-22T04:29:07;23.20;99.90
5697;DHT22;2873;50.966;7.210;2023-06-22T04:31:34;23.00;99.90
5697;DHT22;2873;50.966;7.210;2023-06-22T04:34:03;23.10;99.90
5697;DHT22;2873;50.966;7.210;2023-06-22T04:36:40;23.10;99.90
5697;DHT22;2873;50.966;7.210;2023-06-22T04:39:10;23.20;99.90
5697;DHT22;2873;50.966;7.210;2023-06-22T04:41:37;23.20;99.90
5697;DHT22;2873;50.966;7.210;2023-06-22T04:44:12;23.30;99.90
5697;DHT22;2873;50.966;7.210;2023-06-22T04:46:38;23.40;99.90
5697;DHT22;2873;50.966;7.210;2023-06-22T04:49:08;23.40;99.90
5697;DHT22;2873;50.966;7.210;2023-06-22T04:51:40;23.50;99.90
5697;DHT22;2873;50.966;7.210;2023-06-22T04:54:07;23.50;99.90
5697;DHT22;2873;50.966;7.210;2023-06-22T04:56:33;23.50;99.90
5697;DHT22;2873;50.966;7.210;2023-06-22T04:58:58;23.50;99.90
5697;DHT22;2873;50.966;7.210;2023-06-22T05:01:24;23.50;99.90
5697;DHT22;2873;50.966;7.210;2023-06-22T05:03:50;23.60;99.90
5697;DHT22;2873;50.966;7.210;2023-06-22T05:06:16;23.60;99.90
5697;DHT22;2873;50.966;7.210;2023-06-22T05:08:43;23.60;99.90
5697;DHT22;2873;50.966;7.210;2023-06-22T05:11:09;23.60;99.90
5697;DHT22;2873;50.966;7.210;2023-06-22T05:13:34;23.70;99.90
5697;DHT22;2873;50.966;7.210;2023-06-22T05:16:00;23.70;99.90
5697;DHT22;2873;50.966;7.210;2023-06-22T05:18:29;23.60;99.90
5697;DHT22;2873;50.966;7.210;2023-06-22T05:20:55;23.70;99.90
5697;DHT22;2873;50.966;7.210;2023-06-22T05:23:21;23.70;99.90
5697;DHT22;2873;50.966;7.210;2023-06-22T05:25:46;23.80;99.90
5697;DHT22;2873;50.966;7.210;2023-06-22T05:28:12;23.80;99.90
5697;DHT22;2873;50.966;7.210;2023-06-22T05:30:37;23.70;99.90
5697;DHT22;2873;50.966;7.210;2023-06-22T05:33:03;23.70;99.90
5697;DHT22;2873;50.966;7.210;2023-06-22T05:35:29;23.70;99.90
5697;DHT22;2873;50.966;7.210;2023-06-22T05:37:55;23.70;99.90
5697;DHT22;2873;50.966;7.210;2023-06-22T05:40:21;23.60;99.90
5697;DHT22;2873;50.966;7.210;2023-06-22T05:42:47;23.70;99.90
5697;DHT22;2873;50.966;7.210;2023-06-22T05:45:13;23.70;99.90
5697;DHT22;2873;50.966;7.210;2023-06-22T05:47:38;23.80;99.90
5697;DHT22;2873;50.966;7.210;2023-06-22T05:50:05;23.80;99.90
5697;DHT22;2873;50.966;7.210;2023-06-22T05:52:33;23.70;99.90
5697;DHT22;2873;50.966;7.210;2023-06-22T05:54:59;23.70;99.90
5697;DHT22;2873;50.966;7.210;2023-06-22T05:57:24;23.70;99.90
5697;DHT22;2873;50.966;7.210;2023-06-22T05:59:50;23.70;99.90
5697;DHT22;2873;50.966;7.210;2023-06-22T06:02:15;23.60;99.90
5697;DHT22;2873;50.966;7.210;2023-06-22T06:04:41;23.70;99.90
5697;DHT22;2873;50.966;7.210;2023-06-22T06:07:07;23.70;99.90
5697;DHT22;2873;50.966;7.210;2023-06-22T06:09:32;23.80;99.90
5697;DHT22;2873;50.966;7.210;2023-06-22T06:11:58;23.90;99.90
5697;DHT22;2873;50.966;7.210;2023-06-22T06:14:23;23.90;99.90
5697;DHT22;2873;50.966;7.210;2023-06-22T06:16:49;24.00;99.90
5697;DHT22;2873;50.966;7.210;2023-06-22T06:19:15;24.00;99.90
5697;DHT22;2873;50.966;7.210;2023-06-22T06:21:40;24.10;99.90
5697;DHT22;2873;50.966;7.210;2023-06-22T06:24:06;24.30;99.90
5697;DHT22;2873;50.966;7.210;2023-06-22T06:26:32;24.30;99.90
5697;DHT22;2873;50.966;7.210;2023-06-22T06:29:00;24.30;99.90
5697;DHT22;2873;50.966;7.210;2023-06-22T06:31:26;24.40;99.90
5697;DHT22;2873;50.966;7.210;2023-06-22T06:33:57;24.50;99.90
5697;DHT22;2873;50.966;7.210;2023-06-22T06:36:23;24.50;99.90
5697;DHT22;2873;50.966;7.210;2023-06-22T06:38:48;24.50;99.90
5697;DHT22;2873;50.966;7.210;2023-06-22T06:41:15;24.50;99.90
5697;DHT22;2873;50.966;7.210;2023-06-22T06:43:41;24.50;99.90
5697;DHT22;2873;50.966;7.210;2023-06-22T06:46:08;24.60;99.90
5697;DHT22;2873;50.966;7.210;2023-06-22T06:48:34;24.40;99.90
5697;DHT22;2873;50.966;7.210;2023-06-22T06:51:00;24.40;99.90
5697;DHT22;2873;50.966;7.210;2023-06-22T06:53:25;24.40;99.90
5697;DHT22;2873;50.966;7.210;2023-06-22T06:55:51;24.40;99.90
5697;DHT22;2873;50.966;7.210;2023-06-22T06:58:16;24.30;99.90
5697;DHT22;2873;50.966;7.210;2023-06-22T07:00:42;24.30;99.90
5697;DHT22;2873;50.966;7.210;2023-06-22T07:03:08;24.40;99.90
5697;DHT22;2873;50.966;7.210;2023-06-22T07:05:35;24.60;99.90
5697;DHT22;2873;50.966;7.210;2023-06-22T07:08:00;24.60;99.90
5697;DHT22;2873;50.966;7.210;2023-06-22T07:10:26;24.60;99.90
5697;DHT22;2873;50.966;7.210;2023-06-22T07:12:52;24.70;99.90
5697;DHT22;2873;50.966;7.210;2023-06-22T07:15:18;24.70;99.90
5697;DHT22;2873;50.966;7.210;2023-06-22T07:17:43;24.70;99.90
5697;DHT22;2873;50.966;7.210;2023-06-22T07:20:09;24.70;99.90
5697;DHT22;2873;50.966;7.210;2023-06-22T07:22:39;24.80;99.90
5697;DHT22;2873;50.966;7.210;2023-06-22T07:25:05;24.90;99.90
5697;DHT22;2873;50.966;7.210;2023-06-22T07:28:03;24.90;99.90
5697;DHT22;2873;50.966;7.210;2023-06-22T07:30:30;25.00;99.90
5697;DHT22;2873;50.966;7.210;2023-06-22T07:32:56;25.10;99.90
5697;DHT22;2873;50.966;7.210;2023-06-22T07:35:22;25.10;99.90
5697;DHT22;2873;50.966;7.210;2023-06-22T07:37:48;25.20;99.90
5697;DHT22;2873;50.966;7.210;2023-06-22T07:40:13;25.30;99.90
5697;DHT22;2873;50.966;7.210;2023-06-22T07:42:39;25.30;99.90
5697;DHT22;2873;50.966;7.210;2023-06-22T07:45:05;25.40;99.90
5697;DHT22;2873;50.966;7.210;2023-06-22T07:47:33;25.50;99.90
5697;DHT22;2873;50.966;7.210;2023-06-22T07:50:01;25.50;99.90
5697;DHT22;2873;50.966;7.210;2023-06-22T07:52:30;25.50;99.90
5697;DHT22;2873;50.966;7.210;2023-06-22T07:54:56;25.60;99.90
5697;DHT22;2873;50.966;7.210;2023-06-22T07:57:22;25.70;99.90
5697;DHT22;2873;50.966;7.210;2023-06-22T07:59:47;25.70;99.90
5697;DHT22;2873;50.966;7.210;2023-06-22T08:02:13;25.80;99.90
5697;DHT22;2873;50.966;7.210;2023-06-22T08:04:39;25.80;99.90
5697;DHT22;2873;50.966;7.210;2023-06-22T08:07:05;25.90;99.90
5697;DHT22;2873;50.966;7.210;2023-06-22T08:09:32;25.80;99.90
5697;DHT22;2873;50.966;7.210;2023-06-22T08:11:58;25.90;99.90
5697;DHT22;2873;50.966;7.210;2023-06-22T08:14:29;25.90;99.90
5697;DHT22;2873;50.966;7.210;2023-06-22T08:16:55;26.00;99.90
5697;DHT22;2873;50.966;7.210;2023-06-22T08:19:20;26.00;99.90
5697;DHT22;2873;50.966;7.210;2023-06-22T08:21:46;26.10;99.90
5697;DHT22;2873;50.966;7.210;2023-06-22T08:24:12;26.20;99.90
5697;DHT22;2873;50.966;7.210;2023-06-22T08:26:38;26.20;99.90
5697;DHT22;2873;50.966;7.210;2023-06-22T08:29:04;26.30;99.90
5697;DHT22;2873;50.966;7.210;2023-06-22T08:31:30;26.30;99.90
5697;DHT22;2873;50.966;7.210;2023-06-22T08:33:56;26.40;99.90
5697;DHT22;2873;50.966;7.210;2023-06-22T08:36:22;26.40;99.90
5697;DHT22;2873;50.966;7.210;2023-06-22T08:38:47;26.60;99.90
5697;DHT22;2873;50.966;7.210;2023-06-22T08:41:17;26.60;99.90
5697;DHT22;2873;50.966;7.210;2023-06-22T08:43:43;26.60;99.90
5697;DHT22;2873;50.966;7.210;2023-06-22T08:46:10;26.70;99.90
5697;DHT22;2873;50.966;7.210;2023-06-22T08:48:36;26.70;99.90
5697;DHT22;2873;50.966;7.210;2023-06-22T08:51:01;26.80;99.90
5697;DHT22;2873;50.966;7.210;2023-06-22T08:53:28;26.90;99.90
5697;DHT22;2873;50.966;7.210;2023-06-22T08:55:53;27.00;99.90
5697;DHT22;2873;50.966;7.210;2023-06-22T08:58:19;27.00;99.90
5697;DHT22;2873;50.966;7.210;2023-06-22T09:00:46;27.00;99.90
5697;DHT22;2873;50.966;7.210;2023-06-22T09:03:12;27.10;99.90
5697;DHT22;2873;50.966;7.210;2023-06-22T09:05:38;27.10;99.90
5697;DHT22;2873;50.966;7.210;2023-06-22T09:08:04;27.00;99.90
5697;DHT22;2873;50.966;7.210;2023-06-22T09:10:29;27.10;99.90
5697;DHT22;2873;50.966;7.210;2023-06-22T09:12:55;27.20;99.90
5697;DHT22;2873;50.966;7.210;2023-06-22T09:15:20;27.30;99.90
5697;DHT22;2873;50.966;7.210;2023-06-22T09:17:46;27.30;99.90
5697;DHT22;2873;50.966;7.210;2023-06-22T09:20:12;27.40;99.90
5697;DHT22;2873;50.966;7.210;2023-06-22T09:22:37;27.40;99.90
5697;DHT22;2873;50.966;7.210;2023-06-22T09:25:04;27.50;99.90
5697;DHT22;2873;50.966;7.210;2023-06-22T09:27:30;27.50;99.90
5697;DHT22;2873;50.966;7.210;2023-06-22T09:29:55;27.50;99.90
5697;DHT22;2873;50.966;7.210;2023-06-22T09:32:24;27.60;99.90
5697;DHT22;2873;50.966;7.210;2023-06-22T09:34:49;27.70;99.90
5697;DHT22;2873;50.966;7.210;2023-06-22T09:37:15;27.80;99.90
5697;DHT22;2873;50.966;7.210;2023-06-22T09:39:40;27.80;99.90
5697;DHT22;2873;50.966;7.210;2023-06-22T09:42:06;27.80;99.90
5697;DHT22;2873;50.966;7.210;2023-06-22T09:44:32;27.80;99.90
5697;DHT22;2873;50.966;7.210;2023-06-22T09:46:57;27.90;99.90
5697;DHT22;2873;50.966;7.210;2023-06-22T09:49:23;28.00;99.90
5697;DHT22;2873;50.966;7.210;2023-06-22T09:51:49;28.10;99.90
5697;DHT22;2873;50.966;7.210;2023-06-22T09:54:16;28.20;99.90
5697;DHT22;2873;50.966;7.210;2023-06-22T09:56:41;28.30;99.90
5697;DHT22;2873;50.966;7.210;2023-06-22T09:59:07;28.30;99.90
5697;DHT22;2873;50.966;7.210;2023-06-22T10:01:32;28.40;99.90
5697;DHT22;2873;50.966;7.210;2023-06-22T10:03:58;28.40;99.90
5697;DHT22;2873;50.966;7.210;2023-06-22T10:06:24;28.40;99.90
5697;DHT22;2873;50.966;7.210;2023-06-22T10:08:51;28.30;99.90
5697;DHT22;2873;50.966;7.210;2023-06-22T10:11:17;28.30;99.90
5697;DHT22;2873;50.966;7.210;2023-06-22T10:13:42;28.30;99.90
5697;DHT22;2873;50.966;7.210;2023-06-22T10:16:08;28.30;99.90
5697;DHT22;2873;50.966;7.210;2023-06-22T10:18:33;28.30;99.90
5697;DHT22;2873;50.966;7.210;2023-06-22T10:20:59;28.10;99.90
5697;DHT22;2873;50.966;7.210;2023-06-22T10:23:25;28.10;99.90
5697;DHT22;2873;50.966;7.210;2023-06-22T10:25:51;28.00;99.90
5697;DHT22;2873;50.966;7.210;2023-06-22T10:28:17;28.00;99.90
5697;DHT22;2873;50.966;7.210;2023-06-22T10:30:42;27.90;99.90
5697;DHT22;2873;50.966;7.210;2023-06-22T10:33:09;27.80;99.90
5697;DHT22;2873;50.966;7.210;2023-06-22T10:35:35;27.80;99.90
5697;DHT22;2873;50.966;7.210;2023-06-22T10:38:03;27.80;99.90
5697;DHT22;2873;50.966;7.210;2023-06-22T10:40:28;27.80;99.90
5697;DHT22;2873;50.966;7.210;2023-06-22T10:42:54;27.80;99.90
5697;DHT22;2873;50.966;7.210;2023-06-22T10:45:20;27.80;99.90
5697;DHT22;2873;50.966;7.210;2023-06-22T10:47:46;27.80;99.90
5697;DHT22;2873;50.966;7.210;2023-06-22T10:50:13;27.80;99.90
5697;DHT22;2873;50.966;7.210;2023-06-22T10:52:39;27.80;99.90
5697;DHT22;2873;50.966;7.210;2023-06-22T10:55:05;27.70;99.90
5697;DHT22;2873;50.966;7.210;2023-06-22T10:57:31;27.60;99.90
5697;DHT22;2873;50.966;7.210;2023-06-22T10:59:57;27.50;99.90
5697;DHT22;2873;50.966;7.210;2023-06-22T11:02:23;27.30;99.90
5697;DHT22;2873;50.966;7.210;2023-06-22T11:04:49;27.20;99.90
5697;DHT22;2873;50.966;7.210;2023-06-22T11:07:15;27.10;99.90
5697;DHT22;2873;50.966;7.210;2023-06-22T11:09:43;27.20;99.90
5697;DHT22;2873;50.966;7.210;2023-06-22T11:12:08;27.00;99.90
5697;DHT22;2873;50.966;7.210;2023-06-22T11:14:34;26.90;99.90
5697;DHT22;2873;50.966;7.210;2023-06-22T11:17:00;26.80;99.90
5697;DHT22;2873;50.966;7.210;2023-06-22T11:19:26;26.80;99.90
5697;DHT22;2873;50.966;7.210;2023-06-22T11:21:51;26.80;99.90
5697;DHT22;2873;50.966;7.210;2023-06-22T11:24:17;27.00;99.90
5697;DHT22;2873;50.966;7.210;2023-06-22T11:26:43;26.80;99.90
5697;DHT22;2873;50.966;7.210;2023-06-22T11:29:08;26.60;99.90
5697;DHT22;2873;50.966;7.210;2023-06-22T11:31:35;26.50;99.90
5697;DHT22;2873;50.966;7.210;2023-06-22T11:34:00;26.40;99.90
5697;DHT22;2873;50.966;7.210;2023-06-22T11:36:26;26.40;99.90
5697;DHT22;2873;50.966;7.210;2023-06-22T11:38:52;26.50;99.90
5697;DHT22;2873;50.966;7.210;2023-06-22T11:41:18;26.30;99.90
5697;DHT22;2873;50.966;7.210;2023-06-22T11:43:44;26.30;99.90
5697;DHT22;2873;50.966;7.210;2023-06-22T11:46:10;26.20;99.90
5697;DHT22;2873;50.966;7.210;2023-06-22T11:48:36;26.20;99.90
5697;DHT22;2873;50.966;7.210;2023-06-22T11:51:02;26.20;99.90
5697;DHT22;2873;50.966;7.210;2023-06-22T11:53:29;26.20;99.90
5697;DHT22;2873;50.966;7.210;2023-06-22T11:55:55;26.30;99.90
5697;DHT22;2873;50.966;7.210;2023-06-22T11:58:21;26.50;99.90
5697;DHT22;2873;50.966;7.210;2023-06-22T12:04:08;26.40;99.90
5697;DHT22;2873;50.966;7.210;2023-06-22T12:06:37;26.40;99.90
5697;DHT22;2873;50.966;7.210;2023-06-22T12:09:05;26.60;99.90
5697;DHT22;2873;50.966;7.210;2023-06-22T12:11:30;26.60;99.90
5697;DHT22;2873;50.966;7.210;2023-06-22T12:13:59;26.60;99.90
5697;DHT22;2873;50.966;7.210;2023-06-22T12:16:30;26.50;99.90
5697;DHT22;2873;50.966;7.210;2023-06-22T12:18:56;26.50;99.90
5697;DHT22;2873;50.966;7.210;2023-06-22T12:21:21;26.10;99.90
5697;DHT22;2873;50.966;7.210;2023-06-22T12:23:47;26.20;99.90
5697;DHT22;2873;50.966;7.210;2023-06-22T12:26:12;26.30;99.90
5697;DHT22;2873;50.966;7.210;2023-06-22T12:28:38;26.30;99.90
5697;DHT22;2873;50.966;7.210;2023-06-22T12:31:03;26.40;99.90
5697;DHT22;2873;50.966;7.210;2023-06-22T12:33:29;26.40;99.90
5697;DHT22;2873;50.966;7.210;2023-06-22T12:35:56;26.40;99.90
5697;DHT22;2873;50.966;7.210;2023-06-22T12:38:21;26.50;99.90
5697;DHT22;2873;50.966;7.210;2023-06-22T12:40:47;26.50;99.90
5697;DHT22;2873;50.966;7.210;2023-06-22T12:43:14;26.60;99.90
5697;DHT22;2873;50.966;7.210;2023-06-22T12:45:40;26.60;99.90
5697;DHT22;2873;50.966;7.210;2023-06-22T12:48:06;26.80;99.90
5697;DHT22;2873;50.966;7.210;2023-06-22T12:50:31;27.00;99.90
5697;DHT22;2873;50.966;7.210;2023-06-22T12:52:57;27.10;99.90
5697;DHT22;2873;50.966;7.210;2023-06-22T12:55:23;27.40;99.90
5697;DHT22;2873;50.966;7.210;2023-06-22T12:57:48;27.50;99.90
5697;DHT22;2873;50.966;7.210;2023-06-22T13:00:14;27.70;99.90
5697;DHT22;2873;50.966;7.210;2023-06-22T13:02:40;28.00;99.90
5697;DHT22;2873;50.966;7.210;2023-06-22T13:05:06;28.10;99.90
5697;DHT22;2873;50.966;7.210;2023-06-22T13:07:32;28.20;99.90
5697;DHT22;2873;50.966;7.210;2023-06-22T13:09:57;28.10;99.90
5697;DHT22;2873;50.966;7.210;2023-06-22T13:12:23;28.30;99.90
5697;DHT22;2873;50.966;7.210;2023-06-22T13:14:49;28.40;99.90
5697;DHT22;2873;50.966;7.210;2023-06-22T13:17:15;28.40;99.90
5697;DHT22;2873;50.966;7.210;2023-06-22T13:19:41;28.50;99.90
5697;DHT22;2873;50.966;7.210;2023-06-22T13:22:30;28.70;99.90
5697;DHT22;2873;50.966;7.210;2023-06-22T13:24:56;28.70;99.90
5697;DHT22;2873;50.966;7.210;2023-06-22T13:27:22;28.70;99.90
5697;DHT22;2873;50.966;7.210;2023-06-22T13:29:47;28.90;99.90
5697;DHT22;2873;50.966;7.210;2023-06-22T13:32:13;29.00;99.90
5697;DHT22;2873;50.966;7.210;2023-06-22T13:34:38;29.00;99.90
5697;DHT22;2873;50.966;7.210;2023-06-22T13:37:04;29.00;99.90
5697;DHT22;2873;50.966;7.210;2023-06-22T13:39:30;29.00;99.90
5697;DHT22;2873;50.966;7.210;2023-06-22T13:41:57;29.10;99.90
5697;DHT22;2873;50.966;7.210;2023-06-22T13:44:23;29.10;99.90
5697;DHT22;2873;50.966;7.210;2023-06-22T13:46:48;29.10;99.90
5697;DHT22;2873;50.966;7.210;2023-06-22T13:49:14;29.20;99.90
5697;DHT22;2873;50.966;7.210;2023-06-22T13:51:40;29.20;99.90
5697;DHT22;2873;50.966;7.210;2023-06-22T13:54:05;29.40;99.90
5697;DHT22;2873;50.966;7.210;2023-06-22T13:56:32;29.40;99.90
5697;DHT22;2873;50.966;7.210;2023-06-22T13:58:58;29.30;99.90
5697;DHT22;2873;50.966;7.210;2023-06-22T14:01:23;29.50;99.90
5697;DHT22;2873;50.966;7.210;2023-06-22T14:03:49;29.50;99.90
5697;DHT22;2873;50.966;7.210;2023-06-22T14:06:14;29.60;99.90
5697;DHT22;2873;50.966;7.210;2023-06-22T14:08:40;29.60;99.90
5697;DHT22;2873;50.966;7.210;2023-06-22T14:11:05;29.70;99.90
5697;DHT22;2873;50.966;7.210;2023-06-22T14:13:31;29.70;99.90
5697;DHT22;2873;50.966;7.210;2023-06-22T14:15:56;29.80;99.90
5697;DHT22;2873;50.966;7.210;2023-06-22T14:18:22;29.80;99.90
5697;DHT22;2873;50.966;7.210;2023-06-22T14:20:48;29.90;99.90
5697;DHT22;2873;50.966;7.210;2023-06-22T14:23:14;30.00;99.90
5697;DHT22;2873;50.966;7.210;2023-06-22T14:25:40;29.90;99.90
5697;DHT22;2873;50.966;7.210;2023-06-22T14:28:06;29.90;99.90
5697;DHT22;2873;50.966;7.210;2023-06-22T14:30:31;29.80;99.90
5697;DHT22;2873;50.966;7.210;2023-06-22T14:32:57;29.70;99.90
5697;DHT22;2873;50.966;7.210;2023-06-22T14:35:23;29.70;99.90
5697;DHT22;2873;50.966;7.210;2023-06-22T14:37:49;29.70;99.90
5697;DHT22;2873;50.966;7.210;2023-06-22T14:40:15;29.50;99.90
5697;DHT22;2873;50.966;7.210;2023-06-22T14:42:41;29.50;99.90
5697;DHT22;2873;50.966;7.210;2023-06-22T14:45:07;29.20;99.90
5697;DHT22;2873;50.966;7.210;2023-06-22T14:47:33;29.10;99.90
5697;DHT22;2873;50.966;7.210;2023-06-22T14:49:58;28.90;99.90
5697;DHT22;2873;50.966;7.210;2023-06-22T14:52:25;28.80;99.90
5697;DHT22;2873;50.966;7.210;2023-06-22T14:54:51;28.70;99.90
5697;DHT22;2873;50.966;7.210;2023-06-22T14:57:18;28.70;99.90
5697;DHT22;2873;50.966;7.210;2023-06-22T14:59:48;28.40;99.90
5697;DHT22;2873;50.966;7.210;2023-06-22T15:02:14;28.30;99.90
5697;DHT22;2873;50.966;7.210;2023-06-22T15:04:40;28.30;99.90
5697;DHT22;2873;50.966;7.210;2023-06-22T15:07:06;28.20;99.90
5697;DHT22;2873;50.966;7.210;2023-06-22T15:09:31;28.10;99.90
5697;DHT22;2873;50.966;7.210;2023-06-22T15:11:57;28.00;99.90
5697;DHT22;2873;50.966;7.210;2023-06-22T15:14:23;27.90;99.90
5697;DHT22;2873;50.966;7.210;2023-06-22T15:16:49;27.90;99.90
5697;DHT22;2873;50.966;7.210;2023-06-22T15:19:15;27.70;99.90
5697;DHT22;2873;50.966;7.210;2023-06-22T15:21:41;27.60;99.90
5697;DHT22;2873;50.966;7.210;2023-06-22T15:24:06;27.50;99.90
5697;DHT22;2873;50.966;7.210;2023-06-22T15:26:32;27.40;99.90
5697;DHT22;2873;50.966;7.210;2023-06-22T15:28:57;27.20;99.90
5697;DHT22;2873;50.966;7.210;2023-06-22T15:31:23;27.20;99.90
5697;DHT22;2873;50.966;7.210;2023-06-22T15:33:48;27.10;99.90
5697;DHT22;2873;50.966;7.210;2023-06-22T15:36:14;27.00;99.90
5697;DHT22;2873;50.966;7.210;2023-06-22T15:38:39;27.00;99.90
5697;DHT22;2873;50.966;7.210;2023-06-22T15:41:05;26.90;99.90
5697;DHT22;2873;50.966;7.210;2023-06-22T15:43:31;26.70;99.90
5697;DHT22;2873;50.966;7.210;2023-06-22T15:45:56;26.60;99.90
5697;DHT22;2873;50.966;7.210;2023-06-22T15:48:22;26.60;99.90
5697;DHT22;2873;50.966;7.210;2023-06-22T15:50:47;26.70;99.90
5697;DHT22;2873;50.966;7.210;2023-06-22T15:53:14;26.60;99.90
5697;DHT22;2873;50.966;7.210;2023-06-22T15:55:39;26.60;99.90
5697;DHT22;2873;50.966;7.210;2023-06-22T15:58:05;26.40;99.90
5697;DHT22;2873;50.966;7.210;2023-06-22T16:00:30;26.30;99.90
5697;DHT22;2873;50.966;7.210;2023-06-22T16:02:56;26.20;99.90
5697;DHT22;2873;50.966;7.210;2023-06-22T16:05:21;26.20;99.90
5697;DHT22;2873;50.966;7.210;2023-06-22T16:07:47;26.20;99.90